Time;durP1;ratioP1;P1;durP2;ratioP2;P2;SDS_P1;SDS_P2;PMS_P1;PMS_P2;Temp;Humidity;BMP_temperature;BMP_pressure;BME280_temperature;BME280_humidity;BME280_pressure;Samples;Min_cycle;Max_cycle;Signal;HPM_P1;HPM_P2
2022/09/26 00:00:15;;;;;;;17.17;8.17;;;10.80;99.90;;;;;;5065141;28;20485;-62
2022/09/26 00:02:43;;;;;;;16.33;8.27;;;10.70;99.90;;;;;;5064501;28;20482;-62
2022/09/26 00:05:10;;;;;;;11.70;8.47;;;10.60;99.90;;;;;;5065837;28;20714;-61
2022/09/26 00:07:37;;;;;;;17.50;9.80;;;10.40;99.90;;;;;;5065978;28;20562;-62
2022/09/26 00:10:04;;;;;;;20.00;8.53;;;10.40;99.90;;;;;;5066494;28;20487;-62
2022/09/26 00:12:31;;;;;;;24.00;10.37;;;10.40;99.90;;;;;;5064903;28;20482;-61
2022/09/26 00:14:58;;;;;;;17.33;8.50;;;10.50;99.90;;;;;;5064397;28;21017;-61
2022/09/26 00:17:26;;;;;;;19.60;9.00;;;10.50;99.90;;;;;;5067372;28;20478;-62
2022/09/26 00:19:52;;;;;;;23.90;8.67;;;10.60;99.90;;;;;;5065697;28;20490;-62
2022/09/26 00:22:19;;;;;;;14.53;8.60;;;10.50;99.90;;;;;;5066228;28;20470;-61
2022/09/26 00:24:46;;;;;;;14.43;6.70;;;10.50;99.90;;;;;;5067974;28;20565;-61
2022/09/26 00:27:12;;;;;;;13.33;7.10;;;10.40;99.90;;;;;;5066266;28;20543;-61
2022/09/26 00:29:39;;;;;;;17.63;6.73;;;10.50;99.90;;;;;;5069049;28;20479;-61
2022/09/26 00:32:05;;;;;;;22.07;9.40;;;10.60;99.90;;;;;;5063097;28;20740;-61
2022/09/26 00:34:33;;;;;;;18.57;8.57;;;10.50;99.90;;;;;;5067961;28;20482;-62
2022/09/26 00:37:00;;;;;;;18.03;8.40;;;10.40;99.90;;;;;;5068596;28;20474;-62
2022/09/26 00:39:27;;;;;;;18.40;9.10;;;10.40;99.90;;;;;;5065512;28;20857;-61
2022/09/26 00:41:53;;;;;;;16.87;10.07;;;10.40;99.90;;;;;;5067585;28;20481;-61
2022/09/26 00:44:40;;;;;;;16.33;8.63;;;10.30;99.90;;;;;;5066810;28;20482;-61
2022/09/26 00:47:12;;;;;;;17.87;8.40;;;;;;;;;;5071777;28;20832;-61
2022/09/26 00:49:43;;;;;;;21.67;8.33;;;10.20;99.90;;;;;;5066756;28;21064;-61
2022/09/26 00:52:13;;;;;;;14.80;9.00;;;10.10;99.90;;;;;;5065942;28;20886;-61
2022/09/26 00:54:44;;;;;;;18.77;12.10;;;10.80;99.90;;;;;;5063674;28;20505;-61
2022/09/26 00:57:15;;;;;;;20.97;7.73;;;10.00;99.90;;;;;;5066228;28;20482;-61
2022/09/26 00:59:45;;;;;;;15.83;7.50;;;9.90;99.90;;;;;;5066961;28;20479;-61
2022/09/26 01:02:12;;;;;;;13.77;6.47;;;9.90;99.90;;;;;;5061622;28;21085;-61
2022/09/26 01:04:41;;;;;;;9.20;7.03;;;7.70;99.90;;;;;;5067638;28;20553;-61
2022/09/26 01:07:14;;;;;;;23.97;7.57;;;10.00;99.90;;;;;;5066574;28;20486;-61
2022/09/26 01:09:40;;;;;;;12.33;5.90;;;10.00;99.90;;;;;;5067231;28;20566;-61
2022/09/26 01:12:09;;;;;;;15.30;7.53;;;10.00;99.90;;;;;;5067132;28;20482;-60
2022/09/26 01:14:37;;;;;;;16.13;7.40;;;10.00;99.90;;;;;;5067904;28;20484;-61
2022/09/26 01:17:04;;;;;;;15.60;7.50;;;9.90;99.90;;;;;;5073001;28;20486;-61
2022/09/26 01:19:38;;;;;;;12.63;7.27;;;9.90;99.90;;;;;;5071564;28;20474;-61
2022/09/26 01:22:42;;;;;;;14.13;7.27;;;9.90;99.90;;;;;;5071253;28;20470;-61
2022/09/26 01:25:21;;;;;;;11.13;6.43;;;9.80;99.90;;;;;;5066907;28;20568;-61
2022/09/26 01:28:00;;;;;;;18.63;7.63;;;9.80;99.90;;;;;;5070104;28;20487;-61
2022/09/26 01:30:37;;;;;;;12.97;8.30;;;9.80;99.90;;;;;;5070149;28;20501;-61
2022/09/26 01:33:24;;;;;;;14.30;8.00;;;9.80;99.90;;;;;;5071802;28;20470;-60
2022/09/26 01:36:02;;;;;;;21.63;6.00;;;;;;;;;;5069651;28;20845;-60
2022/09/26 01:38:43;;;;;;;14.40;6.03;;;10.00;99.90;;;;;;5060484;28;20986;-60
2022/09/26 01:41:19;;;;;;;12.13;5.60;;;;;;;;;;5069180;28;20482;-61
2022/09/26 01:43:55;;;;;;;18.37;6.40;;;10.10;99.90;;;;;;5071787;28;20961;-60
2022/09/26 01:46:26;;;;;;;17.50;8.07;;;;;;;;;;5068281;28;20609;-61
2022/09/26 01:48:57;;;;;;;11.33;7.07;;;9.90;99.90;;;;;;5068502;28;20483;-61
2022/09/26 01:51:29;;;;;;;14.20;6.80;;;9.80;99.90;;;;;;5064646;28;20481;-61
2022/09/26 01:54:02;;;;;;;14.63;7.23;;;9.70;99.90;;;;;;5069719;28;20500;-61
2022/09/26 01:56:33;;;;;;;10.63;7.60;;;9.60;99.90;;;;;;5059987;28;20567;-60
2022/09/26 01:59:05;;;;;;;23.37;6.80;;;9.60;99.90;;;;;;5071149;28;20470;-60
2022/09/26 02:01:38;;;;;;;10.77;7.43;;;7.80;99.90;;;;;;5049188;28;20877;-60
2022/09/26 02:04:09;;;;;;;8.03;5.83;;;;;;;;;;5074415;28;20561;-60
2022/09/26 02:06:40;;;;;;;9.10;5.30;;;9.70;99.90;;;;;;5072415;28;21186;-61
2022/09/26 02:09:11;;;;;;;9.43;5.67;;;9.80;99.90;;;;;;5069832;28;20987;-61
2022/09/26 02:11:43;;;;;;;15.60;6.27;;;9.80;99.90;;;;;;5059025;28;20482;-61
2022/09/26 02:14:13;;;;;;;12.53;7.20;;;9.60;99.90;;;;;;5056971;28;20490;-61
2022/09/26 02:16:45;;;;;;;8.60;6.20;;;9.50;99.90;;;;;;5078698;28;21010;-60
2022/09/26 02:19:16;;;;;;;21.30;6.67;;;9.50;99.90;;;;;;5069928;28;20885;-60
2022/09/26 02:21:44;;;;;;;8.43;7.03;;;9.50;99.90;;;;;;5075139;28;21029;-61
2022/09/26 02:24:10;;;;;;;8.93;6.43;;;9.50;99.90;;;;;;5073632;28;21006;-61
2022/09/26 02:26:37;;;;;;;7.90;6.07;;;9.60;99.90;;;;;;5073003;28;20482;-61
2022/09/26 02:29:05;;;;;;;16.50;7.80;;;9.60;99.90;;;;;;5073966;28;20470;-61
2022/09/26 02:31:38;;;;;;;11.53;6.50;;;9.40;99.90;;;;;;5076089;28;20980;-60
2022/09/26 02:34:06;;;;;;;13.43;7.20;;;9.30;99.90;;;;;;5063644;28;20482;-61
2022/09/26 02:36:35;;;;;;;10.60;7.43;;;9.20;99.90;;;;;;5064636;28;20470;-60
2022/09/26 02:39:02;;;;;;;14.30;6.80;;;;;;;;;;5075333;28;20497;-61
2022/09/26 02:41:38;;;;;;;12.10;7.03;;;9.20;99.90;;;;;;5071919;28;20475;-60
2022/09/26 02:44:23;;;;;;;14.93;7.43;;;9.20;99.90;;;;;;5062923;28;20854;-61
2022/09/26 02:47:10;;;;;;;17.97;9.00;;;9.30;99.90;;;;;;5073538;28;20965;-62
2022/09/26 02:50:01;;;;;;;13.57;7.33;;;9.50;99.90;;;;;;5062387;28;21305;-62
2022/09/26 02:52:38;;;;;;;29.13;12.07;;;9.40;99.90;;;;;;5072631;28;20470;-61
2022/09/26 02:55:14;;;;;;;16.80;8.10;;;9.40;99.90;;;;;;5075139;28;20679;-61
2022/09/26 02:57:46;;;;;;;25.23;10.60;;;;;;;;;;5064769;28;20481;-62
2022/09/26 03:00:17;;;;;;;19.90;6.80;;;9.50;99.90;;;;;;5073665;28;20510;-61
2022/09/26 03:02:47;;;;;;;12.57;7.13;;;;;;;;;;5069548;28;20486;-60
2022/09/26 03:05:19;;;;;;;27.43;8.97;;;9.30;99.90;;;;;;5070835;28;20953;-61
2022/09/26 03:07:51;;;;;;;18.80;8.60;;;9.20;99.90;;;;;;5073596;28;20708;-61
2022/09/26 03:10:19;;;;;;;28.47;10.73;;;9.10;99.90;;;;;;5073975;28;20481;-61
2022/09/26 03:12:46;;;;;;;13.70;8.10;;;9.10;99.90;;;;;;5065599;28;20493;-61
2022/09/26 03:15:14;;;;;;;13.53;6.60;;;9.00;99.90;;;;;;5072217;28;20470;-61
2022/09/26 03:17:47;;;;;;;17.03;9.60;;;9.00;99.90;;;;;;5074169;28;20569;-60
2022/09/26 03:20:17;;;;;;;18.43;10.43;;;9.00;99.90;;;;;;5070976;28;20482;-61
2022/09/26 03:22:45;;;;;;;17.17;8.50;;;9.10;99.90;;;;;;5072752;28;20539;-61
2022/09/26 03:25:16;;;;;;;13.13;4.57;;;9.30;99.90;;;;;;5063830;28;20497;-61
2022/09/26 03:27:43;;;;;;;16.47;8.47;;;9.30;99.90;;;;;;5071808;28;20478;-61
2022/09/26 03:30:11;;;;;;;10.07;6.70;;;9.30;99.90;;;;;;5073954;28;20486;-61
2022/09/26 03:32:39;;;;;;;20.00;7.90;;;9.30;99.90;;;;;;5063377;28;20471;-60
2022/09/26 03:35:06;;;;;;;10.47;7.20;;;9.20;99.90;;;;;;5071496;28;21519;-60
2022/09/26 03:37:36;;;;;;;15.97;9.20;;;9.20;99.90;;;;;;5073834;28;20477;-60
2022/09/26 03:40:03;;;;;;;15.30;7.63;;;9.20;99.90;;;;;;5071118;28;20512;-60
2022/09/26 03:42:32;;;;;;;13.30;8.30;;;9.10;99.90;;;;;;5069184;28;20569;-60
2022/09/26 03:44:59;;;;;;;14.93;7.97;;;9.20;99.90;;;;;;5066902;28;20686;-60
2022/09/26 03:47:26;;;;;;;17.83;7.97;;;9.40;99.90;;;;;;5068708;28;20634;-61
2022/09/26 03:49:53;;;;;;;10.00;6.80;;;9.50;99.90;;;;;;5073600;28;20478;-60
2022/09/26 03:52:20;;;;;;;12.33;7.63;;;9.60;99.90;;;;;;5070812;28;20479;-60
2022/09/26 03:54:49;;;;;;;13.73;6.97;;;;;;;;;;5074127;28;21112;-60
2022/09/26 03:57:16;;;;;;;14.47;5.57;;;9.70;99.90;;;;;;5071823;28;20493;-60
2022/09/26 03:59:44;;;;;;;8.50;5.53;;;9.80;99.90;;;;;;5072475;28;20470;-60
2022/09/26 04:02:12;;;;;;;12.50;8.60;;;9.80;99.90;;;;;;5073730;28;20892;-60
2022/09/26 04:04:39;;;;;;;13.87;8.47;;;;;;;;;;5057644;28;20479;-60
2022/09/26 04:07:06;;;;;;;25.27;6.83;;;10.00;99.90;;;;;;5072104;28;20501;-60
2022/09/26 04:09:33;;;;;;;8.90;6.20;;;10.00;99.90;;;;;;5074987;28;21049;-60
2022/09/26 04:12:01;;;;;;;26.73;9.30;;;10.00;99.90;;;;;;5066888;28;20475;-60
2022/09/26 04:14:28;;;;;;;21.33;7.90;;;10.10;99.90;;;;;;5071012;28;20788;-60
2022/09/26 04:16:54;;;;;;;9.07;7.47;;;10.20;99.90;;;;;;5079498;28;20493;-60
2022/09/26 04:19:21;;;;;;;14.93;8.63;;;10.10;99.90;;;;;;5067159;28;20477;-59
2022/09/26 04:21:48;;;;;;;27.07;9.50;;;10.10;99.90;;;;;;5071676;28;20482;-60
2022/09/26 04:24:16;;;;;;;19.07;9.30;;;;;;;;;;5074261;28;20603;-60
2022/09/26 04:26:44;;;;;;;11.10;7.33;;;10.00;99.90;;;;;;5074357;28;20998;-61
2022/09/26 04:29:12;;;;;;;16.43;7.17;;;;;;;;;;5059973;28;20543;-61
2022/09/26 04:31:39;;;;;;;18.30;10.70;;;10.10;99.90;;;;;;5072445;28;20494;-61
2022/09/26 04:34:06;;;;;;;18.57;9.53;;;10.00;99.90;;;;;;5073181;28;20855;-61
2022/09/26 04:36:33;;;;;;;23.90;10.23;;;10.10;99.90;;;;;;5073278;28;20474;-61
2022/09/26 04:39:00;;;;;;;27.00;11.17;;;10.10;99.90;;;;;;5075711;28;20913;-61
2022/09/26 04:41:28;;;;;;;26.30;12.60;;;10.20;99.90;;;;;;5071568;28;20486;-61
2022/09/26 04:43:56;;;;;;;28.43;10.70;;;10.10;99.90;;;;;;5073586;28;21083;-61
2022/09/26 04:46:26;;;;;;;21.23;10.70;;;10.20;99.90;;;;;;5069078;28;20625;-61
2022/09/26 04:48:54;;;;;;;20.20;10.70;;;10.20;99.90;;;;;;5063095;28;20495;-61
2022/09/26 04:51:22;;;;;;;29.53;13.03;;;10.20;99.90;;;;;;5080490;28;20489;-61
2022/09/26 04:53:50;;;;;;;17.10;10.13;;;10.20;99.90;;;;;;5071468;28;20913;-61
2022/09/26 04:56:18;;;;;;;19.93;10.90;;;;;;;;;;5057920;28;20477;-62
2022/09/26 04:58:45;;;;;;;27.43;12.20;;;10.20;99.90;;;;;;5071734;28;20474;-62
2022/09/26 05:01:14;;;;;;;30.67;12.37;;;10.20;99.90;;;;;;5055143;28;20474;-62
2022/09/26 05:03:43;;;;;;;23.60;11.57;;;10.20;99.90;;;;;;5070925;28;20876;-62
2022/09/26 05:06:11;;;;;;;23.23;11.07;;;10.20;99.90;;;;;;5072494;28;20536;-62
2022/09/26 05:08:39;;;;;;;32.60;11.80;;;;;;;;;;5065925;28;20736;-62
2022/09/26 05:11:08;;;;;;;36.80;12.73;;;10.40;99.90;;;;;;5079333;28;21069;-62
2022/09/26 05:13:36;;;;;;;22.80;12.37;;;10.30;99.90;;;;;;5066268;28;20483;-62
2022/09/26 05:16:04;;;;;;;30.20;12.80;;;10.30;99.90;;;;;;5073219;28;20514;-62
2022/09/26 05:18:32;;;;;;;24.90;11.47;;;10.20;99.90;;;;;;5069981;28;20649;-62
2022/09/26 05:21:02;;;;;;;21.80;14.03;;;10.10;99.90;;;;;;5070912;28;20707;-61
2022/09/26 05:26:20;;;;;;;19.13;12.43;;;10.10;99.90;;;;;;5062149;28;20489;-61
2022/09/26 05:28:50;;;;;;;18.50;11.07;;;10.00;99.90;;;;;;5078458;28;20573;-62
2022/09/26 05:31:17;;;;;;;18.13;12.00;;;10.10;99.90;;;;;;5070892;28;20482;-62
2022/09/26 05:33:45;;;;;;;18.93;10.97;;;10.10;99.90;;;;;;5070239;28;20891;-61
2022/09/26 05:36:13;;;;;;;17.30;10.00;;;10.10;99.90;;;;;;5073216;28;21077;-62
2022/09/26 05:38:40;;;;;;;17.43;11.53;;;10.10;99.90;;;;;;5072277;28;20475;-62
2022/09/26 05:41:06;;;;;;;20.03;11.17;;;10.10;99.90;;;;;;5071893;28;21248;-62
2022/09/26 05:43:34;;;;;;;17.40;10.17;;;10.10;99.90;;;;;;5073280;28;20491;-61
2022/09/26 05:46:03;;;;;;;17.30;11.03;;;10.10;99.90;;;;;;5067919;28;20589;-61
2022/09/26 05:48:32;;;;;;;16.33;9.77;;;10.20;99.90;;;;;;5070620;28;20481;-61
2022/09/26 05:51:03;;;;;;;16.10;9.10;;;;;;;;;;5076296;28;20565;-61
2022/09/26 05:53:31;;;;;;;15.53;10.13;;;10.10;99.90;;;;;;5077379;28;20580;-61
2022/09/26 05:55:58;;;;;;;12.80;9.33;;;10.10;99.90;;;;;;5077332;28;20527;-61
2022/09/26 05:58:31;;;;;;;34.33;11.40;;;10.10;99.90;;;;;;5074321;28;20860;-63
2022/09/26 06:01:01;;;;;;;24.20;12.47;;;10.10;99.90;;;;;;5063865;28;20509;-61
2022/09/26 06:03:32;;;;;;;22.00;10.63;;;10.10;99.90;;;;;;5076129;28;20958;-62
2022/09/26 06:06:01;;;;;;;14.67;9.93;;;10.00;99.90;;;;;;5073035;28;20567;-61
2022/09/26 06:08:28;;;;;;;20.43;11.30;;;10.10;99.90;;;;;;5070540;28;20533;-61
2022/09/26 06:11:00;;;;;;;34.73;10.93;;;10.10;99.90;;;;;;5077354;28;20760;-62
2022/09/26 06:13:26;;;;;;;14.50;9.70;;;10.20;99.90;;;;;;5072237;28;20467;-62
2022/09/26 06:15:53;;;;;;;19.03;10.80;;;10.20;99.90;;;;;;5075282;28;20474;-62
2022/09/26 06:18:20;;;;;;;18.10;10.10;;;10.20;99.90;;;;;;5072990;27;21019;-62
2022/09/26 06:20:47;;;;;;;17.00;10.87;;;10.30;99.90;;;;;;5076563;28;20532;-62
2022/09/26 06:23:14;;;;;;;18.00;9.93;;;10.30;99.90;;;;;;5073852;28;20814;-62
2022/09/26 06:25:40;;;;;;;15.40;10.33;;;10.30;99.90;;;;;;5075970;28;20482;-63
2022/09/26 06:28:08;;;;;;;23.60;11.23;;;10.70;99.90;;;;;;5072999;28;20481;-61
2022/09/26 06:30:35;;;;;;;20.80;10.67;;;10.70;99.90;;;;;;5073070;28;20481;-61
2022/09/26 06:33:02;;;;;;;21.60;11.60;;;10.90;99.90;;;;;;5072987;28;20872;-62
2022/09/26 06:35:30;;;;;;;22.03;11.00;;;;;;;;;;5074120;28;20478;-61
2022/09/26 06:37:59;;;;;;;14.77;10.30;;;11.20;99.90;;;;;;5075992;28;20472;-61
2022/09/26 06:40:26;;;;;;;24.27;11.60;;;11.70;99.90;;;;;;5075725;28;20483;-60
2022/09/26 06:42:54;;;;;;;17.83;10.97;;;12.30;99.90;;;;;;5074153;28;20474;-60
2022/09/26 06:45:22;;;;;;;22.47;10.63;;;13.20;99.90;;;;;;5073374;28;20478;-61
2022/09/26 06:47:49;;;;;;;17.80;9.00;;;14.20;99.90;;;;;;5075932;28;20589;-61
2022/09/26 06:50:16;;;;;;;12.50;9.07;;;15.10;99.40;;;;;;5075072;28;21154;-61
2022/09/26 06:52:43;;;;;;;13.30;8.83;;;15.70;97.20;;;;;;5070308;28;20521;-61
2022/09/26 06:55:10;;;;;;;12.13;7.50;;;16.20;96.50;;;;;;5057741;28;20513;-61
2022/09/26 06:57:38;;;;;;;13.87;8.60;;;16.70;95.40;;;;;;5076084;28;20806;-62
2022/09/26 07:00:07;;;;;;;20.50;9.60;;;18.10;95.30;;;;;;5062439;27;20986;-62
2022/09/26 07:02:35;;;;;;;11.90;7.03;;;16.70;94.00;;;;;;5064937;28;20474;-62
2022/09/26 07:05:02;;;;;;;13.00;7.23;;;;;;;;;;5067816;28;20485;-62
2022/09/26 07:07:29;;;;;;;10.20;7.47;;;17.60;95.20;;;;;;5065891;28;20470;-62
2022/09/26 07:09:56;;;;;;;16.70;8.00;;;;;;;;;;5062346;28;20569;-62
2022/09/26 07:12:24;;;;;;;9.20;6.50;;;18.70;93.10;;;;;;5068926;28;20503;-63
2022/09/26 07:14:51;;;;;;;12.63;7.03;;;18.90;92.00;;;;;;5076681;28;20502;-63
2022/09/26 07:17:18;;;;;;;15.00;6.90;;;18.60;91.20;;;;;;5069162;28;20573;-63
2022/09/26 07:19:52;;;;;;;10.00;7.73;;;18.50;92.80;;;;;;5068948;28;20478;-63
2022/09/26 07:22:19;;;;;;;22.63;8.90;;;;;;;;;;5066577;28;20445;-63
2022/09/26 07:24:49;;;;;;;17.23;7.40;;;18.10;91.50;;;;;;5068472;28;20555;-62
2022/09/26 07:27:16;;;;;;;14.00;7.77;;;;;;;;;;5066913;28;20474;-63
2022/09/26 07:29:46;;;;;;;12.07;7.80;;;16.40;93.70;;;;;;5070807;28;20827;-63
2022/09/26 07:32:12;;;;;;;13.57;7.80;;;15.80;94.40;;;;;;5069785;28;20811;-63
2022/09/26 07:34:40;;;;;;;15.57;8.40;;;15.10;95.10;;;;;;5070323;28;21017;-62
2022/09/26 07:37:08;;;;;;;21.23;9.00;;;14.30;95.50;;;;;;5069493;28;20763;-62
2022/09/26 07:39:35;;;;;;;18.33;9.47;;;13.90;96.50;;;;;;5070311;28;21076;-63
2022/09/26 07:42:02;;;;;;;16.83;10.47;;;13.70;97.30;;;;;;5067094;28;21006;-62
2022/09/26 07:44:29;;;;;;;21.07;9.80;;;;;;;;;;5070727;28;20475;-63
2022/09/26 07:52:27;;;;;;;13.10;9.83;;;13.00;99.60;;;;;;5067617;28;20474;-63
2022/09/26 07:54:54;;;;;;;29.30;10.07;;;13.10;99.90;;;;;;5072184;28;20477;-61
2022/09/26 07:57:20;;;;;;;14.53;9.30;;;13.10;99.90;;;;;;5071525;28;21183;-63
2022/09/26 07:59:49;;;;;;;11.37;9.63;;;13.20;99.90;;;;;;5067418;28;20490;-63
2022/09/26 08:02:22;;;;;;;36.07;8.93;;;;;;;;;;5070376;28;20478;-64
2022/09/26 08:04:49;;;;;;;14.23;8.37;;;13.10;99.90;;;;;;5069694;28;20760;-62
2022/09/26 08:07:16;;;;;;;18.30;7.50;;;13.20;99.90;;;;;;5065257;28;20478;-64
2022/09/26 08:09:44;;;;;;;13.30;6.83;;;13.30;99.90;;;;;;5076373;28;20482;-63
2022/09/26 08:12:11;;;;;;;12.57;7.50;;;13.30;99.90;;;;;;5068542;28;20482;-62
2022/09/26 08:14:38;;;;;;;11.10;7.23;;;13.40;99.90;;;;;;5070221;28;20504;-63
2022/09/26 08:17:05;;;;;;;17.63;7.90;;;13.40;99.90;;;;;;5068487;28;20470;-63
2022/09/26 08:19:32;;;;;;;10.73;7.73;;;;;;;;;;5069797;28;20973;-62
2022/09/26 08:21:59;;;;;;;11.80;6.37;;;13.50;99.90;;;;;;5069178;28;20643;-63
2022/09/26 08:24:26;;;;;;;17.77;7.87;;;13.40;99.90;;;;;;5069772;28;21147;-62
2022/09/26 08:26:55;;;;;;;7.60;6.73;;;13.40;99.90;;;;;;5070904;28;20975;-62
2022/09/26 08:29:22;;;;;;;13.53;8.73;;;13.20;99.40;;;;;;5068901;28;20577;-63
2022/09/26 08:31:50;;;;;;;22.60;7.80;;;;;;;;;;5067936;28;20509;-62
2022/09/26 08:34:16;;;;;;;15.00;7.10;;;13.00;99.90;;;;;;5066398;28;20663;-62
2022/09/26 08:36:43;;;;;;;16.90;9.17;;;13.00;99.90;;;;;;5070278;28;20501;-63
2022/09/26 08:39:10;;;;;;;15.97;7.97;;;13.20;99.90;;;;;;5066973;28;21032;-62
2022/09/26 08:41:59;;;;;;;13.70;8.43;;;13.20;99.90;;;;;;5067937;28;21612;-62
2022/09/26 08:44:41;;;;;;;16.97;7.50;;;13.20;99.90;;;;;;5069000;28;20844;-62
2022/09/26 08:47:20;;;;;;;12.33;7.97;;;13.20;99.90;;;;;;5062920;28;20482;-63
2022/09/26 08:49:59;;;;;;;15.60;7.87;;;13.30;99.90;;;;;;5057585;28;20949;-63
2022/09/26 08:52:33;;;;;;;12.80;8.23;;;13.50;99.90;;;;;;5068298;28;20845;-62
2022/09/26 08:55:05;;;;;;;11.60;6.10;;;13.60;99.90;;;;;;5063630;28;20651;-63
2022/09/26 08:57:39;;;;;;;11.90;6.57;;;12.90;99.40;;;;;;5075798;28;20482;-62
2022/09/26 09:00:17;;;;;;;16.63;6.13;;;13.80;99.90;;;;;;5068623;28;20482;-62
2022/09/26 09:02:56;;;;;;;12.60;7.93;;;13.90;99.90;;;;;;5068391;28;20649;-62
2022/09/26 09:05:26;;;;;;;11.23;6.20;;;14.00;99.70;;;;;;5065575;28;20873;-63
2022/09/26 09:07:56;;;;;;;12.77;6.53;;;14.10;99.60;;;;;;5068019;28;20513;-63
2022/09/26 09:10:26;;;;;;;17.23;6.80;;;;;;;;;;5068170;28;20638;-63
2022/09/26 09:13:03;;;;;;;12.93;7.60;;;14.20;98.20;;;;;;5067790;28;20482;-62
2022/09/26 09:15:40;;;;;;;13.83;5.60;;;14.50;99.20;;;;;;5067869;28;20961;-63
2022/09/26 09:18:19;;;;;;;8.10;5.80;;;14.70;99.20;;;;;;5068482;28;20482;-63
2022/09/26 09:20:56;;;;;;;17.50;7.90;;;14.90;99.00;;;;;;5064416;28;20544;-63
2022/09/26 09:23:37;;;;;;;12.70;6.50;;;15.10;99.20;;;;;;5067634;28;20478;-63
2022/09/26 09:26:09;;;;;;;10.93;6.03;;;;;;;;;;5069182;28;20697;-63
2022/09/26 09:29:00;;;;;;;16.97;5.93;;;14.80;97.50;;;;;;5068010;28;21451;-62
2022/09/26 09:31:30;;;;;;;12.70;6.10;;;;;;;;;;5068127;28;21106;-63
2022/09/26 09:33:59;;;;;;;9.60;5.90;;;14.70;97.50;;;;;;5067155;28;20986;-63
2022/09/26 09:36:29;;;;;;;16.90;6.20;;;14.70;97.80;;;;;;5069685;28;21030;-63
2022/09/26 09:39:02;;;;;;;23.10;6.33;;;14.80;98.20;;;;;;5062864;28;20487;-61
2022/09/26 09:41:35;;;;;;;14.73;7.73;;;14.80;97.70;;;;;;5067960;28;20484;-62
2022/09/26 09:44:10;;;;;;;16.23;8.10;;;14.50;97.30;;;;;;5053607;28;20491;-62
2022/09/26 09:46:39;;;;;;;9.80;6.93;;;;;;;;;;5068788;28;20539;-62
2022/09/26 09:49:15;;;;;;;16.17;7.33;;;;;;;;;;5063557;28;20483;-62
2022/09/26 09:51:55;;;;;;;23.73;9.33;;;14.80;98.20;;;;;;5066975;28;20840;-62
2022/09/26 09:54:30;;;;;;;14.20;7.27;;;;;;;;;;5063360;28;20478;-62
2022/09/26 09:57:20;;;;;;;15.67;8.20;;;14.90;97.90;;;;;;5066985;28;20485;-62
2022/09/26 10:00:02;;;;;;;18.53;9.17;;;15.10;98.10;;;;;;5062898;28;20469;-62
2022/09/26 10:02:36;;;;;;;20.03;7.30;;;15.00;97.50;;;;;;5032757;28;20493;-63
2022/09/26 10:05:16;;;;;;;11.90;7.23;;;14.90;97.20;;;;;;5057318;28;20505;-61
2022/09/26 10:07:46;;;;;;;14.63;8.80;;;14.80;97.40;;;;;;5066491;28;20861;-63
2022/09/26 10:10:16;;;;;;;10.97;7.20;;;;;;;;;;5065806;28;20547;-63
2022/09/26 10:12:43;;;;;;;11.80;7.20;;;14.90;97.40;;;;;;5065479;28;20508;-62
2022/09/26 10:15:19;;;;;;;12.10;6.07;;;14.80;96.90;;;;;;5067311;28;20482;-62
2022/09/26 10:18:02;;;;;;;22.40;7.53;;;15.00;97.80;;;;;;5072383;28;20931;-62
2022/09/26 10:20:40;;;;;;;15.10;6.63;;;15.20;97.60;;;;;;5068794;28;20476;-62
2022/09/26 10:23:16;;;;;;;24.67;7.07;;;15.30;97.20;;;;;;5069873;28;20489;-63
2022/09/26 10:25:47;;;;;;;11.40;6.27;;;;;;;;;;5070634;28;20508;-63
2022/09/26 10:28:28;;;;;;;9.73;4.20;;;15.60;97.70;;;;;;5068704;28;21214;-62
2022/09/26 10:31:03;;;;;;;7.00;6.23;;;15.80;98.00;;;;;;5067678;28;20470;-62
2022/09/26 10:33:33;;;;;;;7.70;5.80;;;16.00;96.80;;;;;;5065606;28;20466;-62
2022/09/26 10:36:08;;;;;;;8.87;5.10;;;15.80;96.50;;;;;;5078017;28;20469;-65
2022/09/26 10:40:43;;;;;;;6.07;5.00;;;15.60;95.20;;;;;;5073010;28;20478;-63
2022/09/26 10:41:23;;;;;;;11.83;6.07;;;15.50;95.20;;;;;;5073825;28;20476;-62
2022/09/26 10:43:53;;;;;;;11.60;5.90;;;;;;;;;;5073061;28;20473;-62
2022/09/26 10:46:23;;;;;;;10.13;6.27;;;15.50;96.60;;;;;;5070216;28;20893;-62
2022/09/26 10:48:52;;;;;;;9.57;5.70;;;15.50;96.30;;;;;;5072015;28;20841;-62
2022/09/26 10:51:24;;;;;;;11.50;5.40;;;15.40;96.60;;;;;;5071449;28;20482;-63
2022/09/26 10:53:55;;;;;;;13.63;7.00;;;15.10;97.00;;;;;;5072410;28;20474;-62
2022/09/26 10:56:26;;;;;;;9.03;6.03;;;15.10;97.50;;;;;;5071955;28;20482;-62
2022/09/26 10:58:58;;;;;;;16.00;6.70;;;15.00;98.30;;;;;;5066235;28;20549;-61
2022/09/26 11:01:29;;;;;;;10.70;6.93;;;15.00;98.30;;;;;;5060186;28;20551;-62
2022/09/26 11:04:00;;;;;;;11.43;5.30;;;15.10;98.60;;;;;;5070218;28;20792;-61
2022/09/26 11:06:31;;;;;;;6.47;5.70;;;15.20;99.30;;;;;;5060518;28;20980;-61
2022/09/26 11:09:02;;;;;;;13.83;6.20;;;15.30;99.20;;;;;;5067480;28;20467;-61
2022/09/26 11:11:32;;;;;;;11.97;5.10;;;15.30;99.10;;;;;;5068684;28;20479;-61
2022/09/26 11:14:03;;;;;;;9.23;6.13;;;13.70;98.70;;;;;;5061008;28;21026;-61
2022/09/26 11:16:38;;;;;;;17.53;4.93;;;15.60;99.20;;;;;;5069433;28;20474;-61
2022/09/26 11:19:09;;;;;;;11.80;5.63;;;;;;;;;;5069347;28;20949;-61
2022/09/26 11:21:42;;;;;;;11.53;6.67;;;15.60;98.70;;;;;;5065243;28;20493;-61
2022/09/26 11:24:16;;;;;;;8.30;6.10;;;15.60;98.70;;;;;;5068328;28;20942;-61
2022/09/26 11:26:51;;;;;;;6.90;5.33;;;15.50;99.20;;;;;;5068157;28;20554;-61
2022/09/26 11:29:29;;;;;;;12.73;6.50;;;15.40;99.60;;;;;;5069107;28;20478;-62
2022/09/26 11:31:57;;;;;;;6.93;6.00;;;15.40;99.90;;;;;;5055078;28;20561;-61
2022/09/26 11:34:30;;;;;;;15.23;6.00;;;15.20;98.80;;;;;;5069592;28;20490;-62
2022/09/26 11:37:12;;;;;;;8.30;4.80;;;15.10;98.70;;;;;;5067141;28;20687;-62
2022/09/26 11:39:51;;;;;;;29.47;5.30;;;15.00;98.80;;;;;;5076087;28;20485;-62
2022/09/26 11:42:26;;;;;;;7.93;5.97;;;;;;;;;;5070670;28;20825;-61
2022/09/26 11:44:57;;;;;;;8.67;5.07;;;;;;;;;;5054425;28;20973;-61
2022/09/26 11:47:54;;;;;;;7.57;5.70;;;14.80;99.70;;;;;;5070197;28;20543;-62
2022/09/26 11:50:39;;;;;;;6.40;5.33;;;14.80;99.20;;;;;;5068025;28;20478;-61
2022/09/26 11:53:19;;;;;;;14.97;5.00;;;14.90;99.30;;;;;;5069357;28;20474;-61
2022/09/26 11:56:01;;;;;;;9.13;4.17;;;15.00;99.50;;;;;;5070516;28;20863;-61
2022/09/26 11:58:38;;;;;;;5.80;5.23;;;15.00;98.60;;;;;;5051240;28;20548;-61
2022/09/26 12:01:15;;;;;;;9.47;4.10;;;15.10;98.40;;;;;;5050504;28;20470;-61
2022/09/26 12:04:14;;;;;;;9.90;4.43;;;15.40;97.20;;;;;;5069518;28;20696;-61
2022/09/26 12:06:48;;;;;;;7.63;4.67;;;15.60;97.80;;;;;;5030594;28;20578;-61
2022/09/26 12:09:34;;;;;;;4.43;2.97;;;15.70;97.90;;;;;;5069382;28;21153;-61
2022/09/26 12:12:10;;;;;;;10.23;3.93;;;15.70;97.50;;;;;;5034874;28;20491;-61
2022/09/26 12:14:45;;;;;;;5.10;3.50;;;15.70;96.60;;;;;;5049845;28;20525;-62
2022/09/26 12:17:19;;;;;;;7.30;4.10;;;15.70;97.70;;;;;;5031669;28;20487;-61
2022/09/26 12:19:57;;;;;;;6.83;4.17;;;15.70;96.10;;;;;;5038746;28;20556;-61
2022/09/26 12:22:32;;;;;;;12.77;6.20;;;15.80;95.70;;;;;;5045093;28;20481;-62
2022/09/26 12:25:23;;;;;;;19.87;3.80;;;15.90;95.80;;;;;;5045835;28;20482;-61
2022/09/26 12:28:00;;;;;;;12.83;7.23;;;15.90;95.60;;;;;;5053977;28;20550;-61
2022/09/26 12:30:31;;;;;;;6.90;4.10;;;;;;;;;;5048638;28;20728;-61
2022/09/26 12:33:20;;;;;;;8.40;5.00;;;;;;;;;;5048247;28;20823;-62
2022/09/26 12:35:52;;;;;;;11.93;5.97;;;;;;;;;;5049650;28;20984;-61
2022/09/26 12:38:33;;;;;;;7.33;3.90;;;15.50;96.50;;;;;;5049107;28;20486;-61
2022/09/26 12:41:13;;;;;;;5.17;3.93;;;15.40;96.50;;;;;;5045369;28;20813;-61
2022/09/26 12:44:03;;;;;;;18.40;4.33;;;15.40;97.60;;;;;;5049140;28;20479;-61
2022/09/26 12:46:51;;;;;;;5.60;3.30;;;15.20;97.10;;;;;;5051281;28;20546;-61
2022/09/26 12:49:31;;;;;;;16.00;5.07;;;15.20;97.00;;;;;;5047312;28;21057;-61
2022/09/26 12:52:10;;;;;;;17.77;4.87;;;15.20;96.90;;;;;;5052560;28;20475;-61
2022/09/26 12:54:54;;;;;;;5.50;2.87;;;15.20;97.10;;;;;;5042352;28;20482;-62
2022/09/26 12:57:29;;;;;;;20.43;4.07;;;15.10;96.90;;;;;;5044408;28;20495;-63
2022/09/26 13:00:10;;;;;;;10.67;4.30;;;15.10;95.90;;;;;;5037836;28;20482;-63
2022/09/26 13:03:09;;;;;;;12.63;2.93;;;15.00;96.20;;;;;;5023557;28;20463;-63
2022/09/26 13:06:24;;;;;;;5.00;3.40;;;15.00;96.00;;;;;;5051084;28;20463;-62
2022/09/26 13:08:59;;;;;;;4.60;2.87;;;14.90;95.70;;;;;;5043551;28;20870;-63
2022/09/26 13:11:29;;;;;;;13.07;5.53;;;;;;;;;;5045027;28;20478;-63
2022/09/26 13:14:17;;;;;;;6.53;4.20;;;14.80;95.80;;;;;;5045834;28;20657;-63
2022/09/26 13:16:55;;;;;;;7.83;4.57;;;15.00;95.70;;;;;;5063152;28;20479;-63
2022/09/26 13:19:33;;;;;;;5.40;4.13;;;14.90;95.30;;;;;;5059534;28;20990;-63
2022/09/26 13:22:02;;;;;;;7.60;3.83;;;15.00;94.70;;;;;;5069895;28;21199;-63